sensor_id;sensor_type;location;lat;lon;timestamp;P1;durP1;ratioP1;P2;durP2;ratioP2
16577;SDS011;8401;52.528;13.340;2023-02-04T00:01:40;1.80;;;1.30;;
16577;SDS011;8401;52.528;13.340;2023-02-04T00:04:06;1.50;;;1.40;;
16577;SDS011;8401;52.528;13.340;2023-02-04T00:06:31;1.97;;;1.17;;
16577;SDS011;8401;52.528;13.340;2023-02-04T00:08:57;2.23;;;1.20;;
16577;SDS011;8401;52.528;13.340;2023-02-04T00:11:23;1.40;;;1.00;;
16577;SDS011;8401;52.528;13.340;2023-02-04T00:13:48;2.47;;;1.43;;
16577;SDS011;8401;52.528;13.340;2023-02-04T00:16:14;3.13;;;1.27;;
16577;SDS011;8401;52.528;13.340;2023-02-04T00:18:39;2.10;;;1.73;;
16577;SDS011;8401;52.528;13.340;2023-02-04T00:21:05;2.20;;;1.10;;
16577;SDS011;8401;52.528;13.340;2023-02-04T00:23:31;1.67;;;1.10;;
16577;SDS011;8401;52.528;13.340;2023-02-04T00:25:56;2.43;;;1.27;;
16577;SDS011;8401;52.528;13.340;2023-02-04T00:28:22;3.23;;;1.60;;
16577;SDS011;8401;52.528;13.340;2023-02-04T00:30:47;1.43;;;0.87;;
16577;SDS011;8401;52.528;13.340;2023-02-04T00:33:13;2.50;;;1.20;;
16577;SDS011;8401;52.528;13.340;2023-02-04T00:35:39;1.77;;;1.00;;
16577;SDS011;8401;52.528;13.340;2023-02-04T00:38:04;1.60;;;1.13;;
16577;SDS011;8401;52.528;13.340;2023-02-04T00:40:30;3.80;;;1.40;;
16577;SDS011;8401;52.528;13.340;2023-02-04T00:42:56;2.07;;;1.10;;
16577;SDS011;8401;52.528;13.340;2023-02-04T00:45:22;1.50;;;1.10;;
16577;SDS011;8401;52.528;13.340;2023-02-04T00:47:48;2.67;;;0.90;;
16577;SDS011;8401;52.528;13.340;2023-02-04T00:50:14;1.70;;;1.00;;
16577;SDS011;8401;52.528;13.340;2023-02-04T00:52:40;1.10;;;0.80;;
16577;SDS011;8401;52.528;13.340;2023-02-04T00:55:05;2.90;;;0.87;;
16577;SDS011;8401;52.528;13.340;2023-02-04T00:57:32;2.53;;;1.00;;
16577;SDS011;8401;52.528;13.340;2023-02-04T00:59:58;1.17;;;0.60;;
16577;SDS011;8401;52.528;13.340;2023-02-04T01:02:23;2.50;;;0.80;;
16577;SDS011;8401;52.528;13.340;2023-02-04T01:04:49;3.80;;;1.83;;
16577;SDS011;8401;52.528;13.340;2023-02-04T01:07:15;6.50;;;1.10;;
16577;SDS011;8401;52.528;13.340;2023-02-04T01:09:41;2.30;;;1.17;;
16577;SDS011;8401;52.528;13.340;2023-02-04T01:12:06;1.93;;;0.80;;
16577;SDS011;8401;52.528;13.340;2023-02-04T01:14:32;2.67;;;1.20;;
16577;SDS011;8401;52.528;13.340;2023-02-04T01:16:57;4.73;;;1.10;;
16577;SDS011;8401;52.528;13.340;2023-02-04T01:19:23;2.40;;;0.80;;
16577;SDS011;8401;52.528;13.340;2023-02-04T01:21:49;1.10;;;0.63;;
16577;SDS011;8401;52.528;13.340;2023-02-04T01:24:14;2.17;;;1.10;;
16577;SDS011;8401;52.528;13.340;2023-02-04T01:26:40;2.33;;;0.93;;
16577;SDS011;8401;52.528;13.340;2023-02-04T01:29:06;2.27;;;1.00;;
16577;SDS011;8401;52.528;13.340;2023-02-04T01:31:31;1.23;;;0.90;;
16577;SDS011;8401;52.528;13.340;2023-02-04T01:33:58;0.77;;;0.77;;
16577;SDS011;8401;52.528;13.340;2023-02-04T01:36:25;0.80;;;0.80;;
16577;SDS011;8401;52.528;13.340;2023-02-04T01:38:51;3.57;;;1.10;;
16577;SDS011;8401;52.528;13.340;2023-02-04T01:41:16;1.27;;;0.90;;
16577;SDS011;8401;52.528;13.340;2023-02-04T01:43:43;2.07;;;0.70;;
16577;SDS011;8401;52.528;13.340;2023-02-04T01:46:09;2.00;;;0.90;;
16577;SDS011;8401;52.528;13.340;2023-02-04T01:48:35;2.33;;;0.77;;
16577;SDS011;8401;52.528;13.340;2023-02-04T01:51:02;1.83;;;0.90;;
16577;SDS011;8401;52.528;13.340;2023-02-04T01:53:31;2.50;;;1.10;;
16577;SDS011;8401;52.528;13.340;2023-02-04T01:55:58;0.73;;;0.60;;
16577;SDS011;8401;52.528;13.340;2023-02-04T01:58:24;1.37;;;0.60;;
16577;SDS011;8401;52.528;13.340;2023-02-04T02:00:50;1.33;;;0.50;;
16577;SDS011;8401;52.528;13.340;2023-02-04T02:03:16;0.97;;;0.60;;
16577;SDS011;8401;52.528;13.340;2023-02-04T02:05:48;1.03;;;0.60;;
16577;SDS011;8401;52.528;13.340;2023-02-04T02:08:16;4.00;;;0.80;;
16577;SDS011;8401;52.528;13.340;2023-02-04T02:10:42;1.03;;;0.93;;
16577;SDS011;8401;52.528;13.340;2023-02-04T02:13:11;3.27;;;0.97;;
16577;SDS011;8401;52.528;13.340;2023-02-04T02:15:39;2.30;;;0.87;;
16577;SDS011;8401;52.528;13.340;2023-02-04T02:18:05;1.03;;;0.70;;
16577;SDS011;8401;52.528;13.340;2023-02-04T02:20:31;1.80;;;0.80;;
16577;SDS011;8401;52.528;13.340;2023-02-04T02:25:25;1.73;;;0.80;;
16577;SDS011;8401;52.528;13.340;2023-02-04T02:27:51;1.70;;;0.60;;
16577;SDS011;8401;52.528;13.340;2023-02-04T02:30:18;1.43;;;0.50;;
16577;SDS011;8401;52.528;13.340;2023-02-04T02:32:47;1.33;;;0.80;;
16577;SDS011;8401;52.528;13.340;2023-02-04T02:35:14;1.07;;;0.70;;
16577;SDS011;8401;52.528;13.340;2023-02-04T02:37:40;3.00;;;0.90;;
16577;SDS011;8401;52.528;13.340;2023-02-04T02:40:06;1.07;;;0.73;;
16577;SDS011;8401;52.528;13.340;2023-02-04T02:42:33;2.67;;;0.80;;
16577;SDS011;8401;52.528;13.340;2023-02-04T02:44:59;3.63;;;1.23;;
16577;SDS011;8401;52.528;13.340;2023-02-04T02:47:26;2.17;;;0.93;;
16577;SDS011;8401;52.528;13.340;2023-02-04T02:49:52;2.43;;;0.73;;
16577;SDS011;8401;52.528;13.340;2023-02-04T02:52:19;1.80;;;1.03;;
16577;SDS011;8401;52.528;13.340;2023-02-04T02:54:45;3.00;;;0.93;;
16577;SDS011;8401;52.528;13.340;2023-02-04T02:57:12;3.20;;;0.73;;
16577;SDS011;8401;52.528;13.340;2023-02-04T02:59:40;1.00;;;0.67;;
16577;SDS011;8401;52.528;13.340;2023-02-04T03:02:06;3.37;;;0.80;;
16577;SDS011;8401;52.528;13.340;2023-02-04T03:04:34;3.73;;;0.80;;
16577;SDS011;8401;52.528;13.340;2023-02-04T03:07:03;2.80;;;1.30;;
16577;SDS011;8401;52.528;13.340;2023-02-04T03:09:29;3.03;;;0.83;;
16577;SDS011;8401;52.528;13.340;2023-02-04T03:11:55;2.40;;;0.80;;
16577;SDS011;8401;52.528;13.340;2023-02-04T03:14:21;1.87;;;0.80;;
16577;SDS011;8401;52.528;13.340;2023-02-04T03:16:49;1.07;;;0.70;;
16577;SDS011;8401;52.528;13.340;2023-02-04T03:19:17;1.07;;;0.77;;
16577;SDS011;8401;52.528;13.340;2023-02-04T03:21:42;2.37;;;0.60;;
16577;SDS011;8401;52.528;13.340;2023-02-04T03:24:09;1.40;;;0.60;;
16577;SDS011;8401;52.528;13.340;2023-02-04T03:26:35;2.60;;;1.17;;
16577;SDS011;8401;52.528;13.340;2023-02-04T03:29:01;2.10;;;0.73;;
16577;SDS011;8401;52.528;13.340;2023-02-04T03:31:30;1.30;;;0.70;;
16577;SDS011;8401;52.528;13.340;2023-02-04T03:33:55;2.37;;;0.80;;
16577;SDS011;8401;52.528;13.340;2023-02-04T03:36:21;1.20;;;0.57;;
16577;SDS011;8401;52.528;13.340;2023-02-04T03:38:47;2.57;;;0.60;;
16577;SDS011;8401;52.528;13.340;2023-02-04T03:41:12;1.03;;;0.63;;
16577;SDS011;8401;52.528;13.340;2023-02-04T03:43:38;3.53;;;0.90;;
16577;SDS011;8401;52.528;13.340;2023-02-04T03:46:03;2.87;;;1.23;;
16577;SDS011;8401;52.528;13.340;2023-02-04T03:48:29;1.30;;;0.60;;
16577;SDS011;8401;52.528;13.340;2023-02-04T03:50:55;2.07;;;0.57;;
16577;SDS011;8401;52.528;13.340;2023-02-04T03:53:20;2.47;;;0.90;;
16577;SDS011;8401;52.528;13.340;2023-02-04T03:55:46;3.37;;;0.80;;
16577;SDS011;8401;52.528;13.340;2023-02-04T03:58:12;2.27;;;0.93;;
16577;SDS011;8401;52.528;13.340;2023-02-04T04:00:37;1.63;;;1.10;;
16577;SDS011;8401;52.528;13.340;2023-02-04T04:03:03;2.77;;;0.80;;
16577;SDS011;8401;52.528;13.340;2023-02-04T04:05:28;1.50;;;1.13;;
16577;SDS011;8401;52.528;13.340;2023-02-04T04:07:54;4.73;;;0.83;;
16577;SDS011;8401;52.528;13.340;2023-02-04T04:10:20;3.43;;;0.77;;
16577;SDS011;8401;52.528;13.340;2023-02-04T04:12:45;0.83;;;0.70;;
16577;SDS011;8401;52.528;13.340;2023-02-04T04:15:11;5.50;;;1.17;;
16577;SDS011;8401;52.528;13.340;2023-02-04T04:17:36;1.33;;;0.63;;
16577;SDS011;8401;52.528;13.340;2023-02-04T04:20:02;1.13;;;0.60;;
16577;SDS011;8401;52.528;13.340;2023-02-04T04:22:28;2.37;;;0.67;;
16577;SDS011;8401;52.528;13.340;2023-02-04T04:24:54;2.20;;;0.83;;
16577;SDS011;8401;52.528;13.340;2023-02-04T04:27:20;3.53;;;0.80;;
16577;SDS011;8401;52.528;13.340;2023-02-04T04:29:45;3.47;;;0.80;;
16577;SDS011;8401;52.528;13.340;2023-02-04T04:32:11;1.90;;;0.77;;
16577;SDS011;8401;52.528;13.340;2023-02-04T04:34:37;1.60;;;0.70;;
16577;SDS011;8401;52.528;13.340;2023-02-04T04:37:02;3.23;;;0.80;;
16577;SDS011;8401;52.528;13.340;2023-02-04T04:39:28;1.77;;;0.40;;
16577;SDS011;8401;52.528;13.340;2023-02-04T04:41:53;3.03;;;0.80;;
16577;SDS011;8401;52.528;13.340;2023-02-04T04:44:19;1.77;;;0.73;;
16577;SDS011;8401;52.528;13.340;2023-02-04T04:46:45;3.07;;;0.83;;
16577;SDS011;8401;52.528;13.340;2023-02-04T04:49:10;1.37;;;0.73;;
16577;SDS011;8401;52.528;13.340;2023-02-04T04:51:36;1.53;;;0.60;;
16577;SDS011;8401;52.528;13.340;2023-02-04T04:54:01;3.03;;;0.90;;
16577;SDS011;8401;52.528;13.340;2023-02-04T04:56:27;1.20;;;0.67;;
16577;SDS011;8401;52.528;13.340;2023-02-04T04:58:53;2.00;;;0.70;;
16577;SDS011;8401;52.528;13.340;2023-02-04T05:01:18;2.07;;;0.60;;
16577;SDS011;8401;52.528;13.340;2023-02-04T05:03:45;1.77;;;0.70;;
16577;SDS011;8401;52.528;13.340;2023-02-04T05:06:10;2.80;;;0.90;;
16577;SDS011;8401;52.528;13.340;2023-02-04T05:08:37;1.87;;;0.97;;
16577;SDS011;8401;52.528;13.340;2023-02-04T05:11:02;1.83;;;1.10;;
16577;SDS011;8401;52.528;13.340;2023-02-04T05:13:28;2.77;;;0.70;;
16577;SDS011;8401;52.528;13.340;2023-02-04T05:15:54;2.87;;;0.90;;
16577;SDS011;8401;52.528;13.340;2023-02-04T05:18:20;2.40;;;0.90;;
16577;SDS011;8401;52.528;13.340;2023-02-04T05:20:45;3.53;;;1.20;;
16577;SDS011;8401;52.528;13.340;2023-02-04T05:23:11;2.60;;;0.80;;
16577;SDS011;8401;52.528;13.340;2023-02-04T05:25:37;4.10;;;0.90;;
16577;SDS011;8401;52.528;13.340;2023-02-04T05:28:02;4.50;;;1.07;;
16577;SDS011;8401;52.528;13.340;2023-02-04T05:30:28;2.40;;;0.87;;
16577;SDS011;8401;52.528;13.340;2023-02-04T05:32:54;2.07;;;0.90;;
16577;SDS011;8401;52.528;13.340;2023-02-04T05:35:19;2.80;;;1.20;;
16577;SDS011;8401;52.528;13.340;2023-02-04T05:37:45;1.70;;;0.87;;
16577;SDS011;8401;52.528;13.340;2023-02-04T05:40:11;3.67;;;1.17;;
16577;SDS011;8401;52.528;13.340;2023-02-04T05:42:37;2.77;;;1.00;;
16577;SDS011;8401;52.528;13.340;2023-02-04T05:45:03;3.93;;;1.50;;
16577;SDS011;8401;52.528;13.340;2023-02-04T05:47:30;2.37;;;1.07;;
16577;SDS011;8401;52.528;13.340;2023-02-04T05:49:55;1.53;;;0.80;;
16577;SDS011;8401;52.528;13.340;2023-02-04T05:52:21;4.40;;;1.00;;
16577;SDS011;8401;52.528;13.340;2023-02-04T05:54:47;3.77;;;1.20;;
16577;SDS011;8401;52.528;13.340;2023-02-04T05:57:12;2.97;;;0.97;;
16577;SDS011;8401;52.528;13.340;2023-02-04T05:59:38;2.57;;;1.37;;
16577;SDS011;8401;52.528;13.340;2023-02-04T06:02:03;4.07;;;1.40;;
16577;SDS011;8401;52.528;13.340;2023-02-04T06:04:29;5.27;;;2.30;;
16577;SDS011;8401;52.528;13.340;2023-02-04T06:06:55;2.40;;;1.40;;
16577;SDS011;8401;52.528;13.340;2023-02-04T06:09:20;3.90;;;1.20;;
16577;SDS011;8401;52.528;13.340;2023-02-04T06:11:46;2.57;;;1.13;;
16577;SDS011;8401;52.528;13.340;2023-02-04T06:14:12;4.30;;;1.70;;
16577;SDS011;8401;52.528;13.340;2023-02-04T06:16:37;2.70;;;1.13;;
16577;SDS011;8401;52.528;13.340;2023-02-04T06:19:03;1.47;;;0.93;;
16577;SDS011;8401;52.528;13.340;2023-02-04T06:21:28;3.20;;;1.20;;
16577;SDS011;8401;52.528;13.340;2023-02-04T06:23:54;3.70;;;1.10;;
16577;SDS011;8401;52.528;13.340;2023-02-04T06:26:20;4.83;;;1.50;;
16577;SDS011;8401;52.528;13.340;2023-02-04T06:28:45;3.63;;;1.53;;
16577;SDS011;8401;52.528;13.340;2023-02-04T06:31:11;3.17;;;1.63;;
16577;SDS011;8401;52.528;13.340;2023-02-04T06:33:37;4.77;;;2.80;;
16577;SDS011;8401;52.528;13.340;2023-02-04T06:36:03;6.87;;;3.60;;
16577;SDS011;8401;52.528;13.340;2023-02-04T06:38:29;6.17;;;2.80;;
16577;SDS011;8401;52.528;13.340;2023-02-04T06:40:54;2.83;;;1.83;;
16577;SDS011;8401;52.528;13.340;2023-02-04T06:43:20;2.77;;;1.60;;
16577;SDS011;8401;52.528;13.340;2023-02-04T06:45:47;2.63;;;1.27;;
16577;SDS011;8401;52.528;13.340;2023-02-04T06:48:15;7.03;;;1.40;;
16577;SDS011;8401;52.528;13.340;2023-02-04T06:50:40;3.60;;;1.30;;
16577;SDS011;8401;52.528;13.340;2023-02-04T06:53:09;1.80;;;1.00;;
16577;SDS011;8401;52.528;13.340;2023-02-04T06:55:35;4.60;;;0.93;;
16577;SDS011;8401;52.528;13.340;2023-02-04T06:58:01;1.83;;;1.00;;
16577;SDS011;8401;52.528;13.340;2023-02-04T07:00:26;2.77;;;1.07;;
16577;SDS011;8401;52.528;13.340;2023-02-04T07:02:52;1.33;;;0.87;;
16577;SDS011;8401;52.528;13.340;2023-02-04T07:05:18;1.77;;;0.90;;
16577;SDS011;8401;52.528;13.340;2023-02-04T07:07:43;3.20;;;0.80;;
16577;SDS011;8401;52.528;13.340;2023-02-04T07:10:09;2.40;;;1.17;;
16577;SDS011;8401;52.528;13.340;2023-02-04T07:12:35;5.83;;;1.10;;
16577;SDS011;8401;52.528;13.340;2023-02-04T07:15:00;4.80;;;0.90;;
16577;SDS011;8401;52.528;13.340;2023-02-04T07:17:26;1.20;;;0.90;;
16577;SDS011;8401;52.528;13.340;2023-02-04T07:19:51;3.90;;;1.20;;
16577;SDS011;8401;52.528;13.340;2023-02-04T07:22:17;5.37;;;1.43;;
16577;SDS011;8401;52.528;13.340;2023-02-04T07:24:43;3.63;;;1.10;;
16577;SDS011;8401;52.528;13.340;2023-02-04T07:27:08;1.50;;;1.17;;
16577;SDS011;8401;52.528;13.340;2023-02-04T07:29:34;3.00;;;1.30;;
16577;SDS011;8401;52.528;13.340;2023-02-04T07:32:00;2.87;;;1.30;;
16577;SDS011;8401;52.528;13.340;2023-02-04T07:34:25;3.10;;;1.27;;
16577;SDS011;8401;52.528;13.340;2023-02-04T07:36:51;3.97;;;1.43;;
16577;SDS011;8401;52.528;13.340;2023-02-04T07:39:17;4.03;;;1.33;;
16577;SDS011;8401;52.528;13.340;2023-02-04T07:41:42;3.93;;;1.40;;
16577;SDS011;8401;52.528;13.340;2023-02-04T07:44:08;8.60;;;1.97;;
16577;SDS011;8401;52.528;13.340;2023-02-04T07:46:34;4.97;;;1.40;;
16577;SDS011;8401;52.528;13.340;2023-02-04T07:48:59;2.67;;;1.23;;
16577;SDS011;8401;52.528;13.340;2023-02-04T07:51:25;2.03;;;1.50;;
16577;SDS011;8401;52.528;13.340;2023-02-04T07:53:51;2.27;;;1.20;;
16577;SDS011;8401;52.528;13.340;2023-02-04T07:56:16;3.50;;;1.10;;
16577;SDS011;8401;52.528;13.340;2023-02-04T07:58:42;1.83;;;1.20;;
16577;SDS011;8401;52.528;13.340;2023-02-04T08:01:07;5.03;;;1.30;;
16577;SDS011;8401;52.528;13.340;2023-02-04T08:03:33;2.70;;;1.03;;
16577;SDS011;8401;52.528;13.340;2023-02-04T08:05:58;2.53;;;1.10;;
16577;SDS011;8401;52.528;13.340;2023-02-04T08:08:24;6.30;;;1.63;;
16577;SDS011;8401;52.528;13.340;2023-02-04T08:10:50;2.93;;;1.40;;
16577;SDS011;8401;52.528;13.340;2023-02-04T08:13:16;2.27;;;1.10;;
16577;SDS011;8401;52.528;13.340;2023-02-04T08:15:41;1.50;;;0.93;;
16577;SDS011;8401;52.528;13.340;2023-02-04T08:18:07;2.07;;;1.20;;
16577;SDS011;8401;52.528;13.340;2023-02-04T08:20:32;3.40;;;1.27;;
16577;SDS011;8401;52.528;13.340;2023-02-04T08:22:58;1.60;;;1.07;;
16577;SDS011;8401;52.528;13.340;2023-02-04T08:25:24;2.07;;;1.10;;
16577;SDS011;8401;52.528;13.340;2023-02-04T08:27:50;0.93;;;0.73;;
16577;SDS011;8401;52.528;13.340;2023-02-04T08:30:16;1.53;;;0.80;;
16577;SDS011;8401;52.528;13.340;2023-02-04T08:32:41;4.60;;;1.27;;
16577;SDS011;8401;52.528;13.340;2023-02-04T08:35:07;4.23;;;1.73;;
16577;SDS011;8401;52.528;13.340;2023-02-04T08:37:33;4.43;;;1.83;;
16577;SDS011;8401;52.528;13.340;2023-02-04T08:39:59;4.87;;;1.50;;
16577;SDS011;8401;52.528;13.340;2023-02-04T08:42:24;3.00;;;1.13;;
16577;SDS011;8401;52.528;13.340;2023-02-04T08:44:50;4.77;;;1.10;;
16577;SDS011;8401;52.528;13.340;2023-02-04T08:47:16;2.60;;;1.73;;
16577;SDS011;8401;52.528;13.340;2023-02-04T08:49:41;1.33;;;1.07;;
16577;SDS011;8401;52.528;13.340;2023-02-04T08:52:07;2.93;;;1.10;;
16577;SDS011;8401;52.528;13.340;2023-02-04T08:54:33;3.67;;;0.90;;
16577;SDS011;8401;52.528;13.340;2023-02-04T08:56:59;2.90;;;1.07;;
16577;SDS011;8401;52.528;13.340;2023-02-04T08:59:25;3.40;;;1.40;;
16577;SDS011;8401;52.528;13.340;2023-02-04T09:01:51;2.00;;;0.90;;
16577;SDS011;8401;52.528;13.340;2023-02-04T09:04:20;3.60;;;1.00;;
16577;SDS011;8401;52.528;13.340;2023-02-04T09:06:47;1.77;;;1.10;;
16577;SDS011;8401;52.528;13.340;2023-02-04T09:09:14;4.27;;;1.10;;
16577;SDS011;8401;52.528;13.340;2023-02-04T09:11:40;4.80;;;1.43;;
16577;SDS011;8401;52.528;13.340;2023-02-04T09:14:06;2.10;;;1.10;;
16577;SDS011;8401;52.528;13.340;2023-02-04T09:16:31;2.83;;;0.87;;
16577;SDS011;8401;52.528;13.340;2023-02-04T09:18:57;2.80;;;1.00;;
16577;SDS011;8401;52.528;13.340;2023-02-04T09:21:23;1.27;;;0.80;;
16577;SDS011;8401;52.528;13.340;2023-02-04T09:23:50;4.97;;;1.27;;
16577;SDS011;8401;52.528;13.340;2023-02-04T09:26:16;2.00;;;1.20;;
16577;SDS011;8401;52.528;13.340;2023-02-04T09:28:41;2.00;;;0.80;;
16577;SDS011;8401;52.528;13.340;2023-02-04T09:31:07;2.03;;;0.90;;
16577;SDS011;8401;52.528;13.340;2023-02-04T09:33:34;3.27;;;1.03;;
16577;SDS011;8401;52.528;13.340;2023-02-04T09:36:00;1.90;;;0.90;;
16577;SDS011;8401;52.528;13.340;2023-02-04T09:38:26;2.03;;;1.00;;
16577;SDS011;8401;52.528;13.340;2023-02-04T09:40:53;1.80;;;0.77;;
16577;SDS011;8401;52.528;13.340;2023-02-04T09:43:22;4.07;;;0.87;;
16577;SDS011;8401;52.528;13.340;2023-02-04T09:45:50;1.80;;;0.70;;
16577;SDS011;8401;52.528;13.340;2023-02-04T09:48:17;1.47;;;0.80;;
16577;SDS011;8401;52.528;13.340;2023-02-04T09:50:43;1.97;;;1.00;;
16577;SDS011;8401;52.528;13.340;2023-02-04T09:53:11;1.53;;;0.80;;
16577;SDS011;8401;52.528;13.340;2023-02-04T09:55:40;1.77;;;0.50;;
16577;SDS011;8401;52.528;13.340;2023-02-04T09:58:18;1.40;;;0.70;;
16577;SDS011;8401;52.528;13.340;2023-02-04T10:00:47;1.57;;;0.70;;
16577;SDS011;8401;52.528;13.340;2023-02-04T10:03:19;1.40;;;0.80;;
16577;SDS011;8401;52.528;13.340;2023-02-04T10:05:46;3.80;;;1.07;;
16577;SDS011;8401;52.528;13.340;2023-02-04T10:08:17;2.13;;;0.67;;
16577;SDS011;8401;52.528;13.340;2023-02-04T10:10:45;3.30;;;1.00;;
16577;SDS011;8401;52.528;13.340;2023-02-04T10:13:20;1.80;;;1.00;;
16577;SDS011;8401;52.528;13.340;2023-02-04T10:15:54;1.47;;;0.70;;
16577;SDS011;8401;52.528;13.340;2023-02-04T10:18:30;2.10;;;0.77;;
16577;SDS011;8401;52.528;13.340;2023-02-04T10:23:40;2.27;;;1.03;;
16577;SDS011;8401;52.528;13.340;2023-02-04T10:26:09;2.17;;;0.90;;
16577;SDS011;8401;52.528;13.340;2023-02-04T10:28:36;4.37;;;1.30;;
16577;SDS011;8401;52.528;13.340;2023-02-04T10:31:02;1.80;;;1.13;;
16577;SDS011;8401;52.528;13.340;2023-02-04T10:33:27;1.70;;;0.80;;
16577;SDS011;8401;52.528;13.340;2023-02-04T10:35:56;2.63;;;0.90;;
16577;SDS011;8401;52.528;13.340;2023-02-04T10:38:22;2.77;;;1.00;;
16577;SDS011;8401;52.528;13.340;2023-02-04T10:40:59;1.40;;;0.73;;
16577;SDS011;8401;52.528;13.340;2023-02-04T10:43:28;2.30;;;0.60;;
16577;SDS011;8401;52.528;13.340;2023-02-04T10:45:54;1.60;;;0.50;;
16577;SDS011;8401;52.528;13.340;2023-02-04T10:48:22;6.00;;;1.87;;
16577;SDS011;8401;52.528;13.340;2023-02-04T10:50:48;1.30;;;0.70;;
16577;SDS011;8401;52.528;13.340;2023-02-04T10:53:14;3.10;;;1.07;;
16577;SDS011;8401;52.528;13.340;2023-02-04T10:56:01;4.73;;;1.10;;
16577;SDS011;8401;52.528;13.340;2023-02-04T10:58:27;1.07;;;0.50;;
16577;SDS011;8401;52.528;13.340;2023-02-04T11:00:54;2.13;;;0.50;;
16577;SDS011;8401;52.528;13.340;2023-02-04T11:03:21;0.80;;;0.40;;
16577;SDS011;8401;52.528;13.340;2023-02-04T11:05:47;1.27;;;0.80;;
16577;SDS011;8401;52.528;13.340;2023-02-04T11:08:20;0.67;;;0.50;;
16577;SDS011;8401;52.528;13.340;2023-02-04T11:10:49;2.10;;;0.50;;
16577;SDS011;8401;52.528;13.340;2023-02-04T11:13:24;1.30;;;0.53;;
16577;SDS011;8401;52.528;13.340;2023-02-04T11:18:48;0.97;;;0.60;;
16577;SDS011;8401;52.528;13.340;2023-02-04T11:26:40;2.20;;;1.33;;
16577;SDS011;8401;52.528;13.340;2023-02-04T11:29:09;3.03;;;0.83;;
16577;SDS011;8401;52.528;13.340;2023-02-04T11:36:50;2.17;;;0.70;;
16577;SDS011;8401;52.528;13.340;2023-02-04T11:39:21;0.87;;;0.47;;
16577;SDS011;8401;52.528;13.340;2023-02-04T11:41:48;1.53;;;0.47;;
16577;SDS011;8401;52.528;13.340;2023-02-04T11:44:14;0.70;;;0.40;;
16577;SDS011;8401;52.528;13.340;2023-02-04T11:46:41;2.00;;;0.40;;
16577;SDS011;8401;52.528;13.340;2023-02-04T11:49:16;0.63;;;0.43;;
16577;SDS011;8401;52.528;13.340;2023-02-04T11:51:43;1.10;;;0.47;;
16577;SDS011;8401;52.528;13.340;2023-02-04T11:54:11;0.67;;;0.40;;
16577;SDS011;8401;52.528;13.340;2023-02-04T11:56:38;0.90;;;0.60;;
16577;SDS011;8401;52.528;13.340;2023-02-04T11:59:03;1.33;;;0.77;;
16577;SDS011;8401;52.528;13.340;2023-02-04T12:01:30;0.83;;;0.60;;
16577;SDS011;8401;52.528;13.340;2023-02-04T12:03:58;1.27;;;0.70;;
16577;SDS011;8401;52.528;13.340;2023-02-04T12:06:29;0.53;;;0.50;;
16577;SDS011;8401;52.528;13.340;2023-02-04T12:09:07;0.83;;;0.50;;
16577;SDS011;8401;52.528;13.340;2023-02-04T12:11:53;0.60;;;0.33;;
16577;SDS011;8401;52.528;13.340;2023-02-04T12:14:31;1.87;;;0.50;;
16577;SDS011;8401;52.528;13.340;2023-02-04T12:16:57;0.53;;;0.40;;
16577;SDS011;8401;52.528;13.340;2023-02-04T12:19:23;0.67;;;0.40;;
16577;SDS011;8401;52.528;13.340;2023-02-04T12:21:48;1.07;;;0.47;;
16577;SDS011;8401;52.528;13.340;2023-02-04T12:24:14;1.17;;;0.37;;
16577;SDS011;8401;52.528;13.340;2023-02-04T12:26:40;1.83;;;0.90;;
16577;SDS011;8401;52.528;13.340;2023-02-04T12:29:06;0.80;;;0.50;;
16577;SDS011;8401;52.528;13.340;2023-02-04T12:31:32;1.60;;;0.67;;
16577;SDS011;8401;52.528;13.340;2023-02-04T12:33:58;0.80;;;0.50;;
16577;SDS011;8401;52.528;13.340;2023-02-04T12:36:24;2.03;;;1.10;;
16577;SDS011;8401;52.528;13.340;2023-02-04T12:38:52;1.80;;;0.60;;
16577;SDS011;8401;52.528;13.340;2023-02-04T12:41:18;1.63;;;0.90;;
16577;SDS011;8401;52.528;13.340;2023-02-04T12:43:44;1.10;;;0.67;;
16577;SDS011;8401;52.528;13.340;2023-02-04T12:46:10;1.63;;;0.60;;
16577;SDS011;8401;52.528;13.340;2023-02-04T12:48:36;4.70;;;1.30;;
16577;SDS011;8401;52.528;13.340;2023-02-04T12:51:05;3.07;;;1.10;;
16577;SDS011;8401;52.528;13.340;2023-02-04T12:53:31;2.77;;;0.57;;
16577;SDS011;8401;52.528;13.340;2023-02-04T12:55:56;0.90;;;0.50;;
16577;SDS011;8401;52.528;13.340;2023-02-04T12:58:22;1.67;;;0.40;;
16577;SDS011;8401;52.528;13.340;2023-02-04T13:00:48;0.57;;;0.43;;
16577;SDS011;8401;52.528;13.340;2023-02-04T13:03:13;1.27;;;0.50;;
16577;SDS011;8401;52.528;13.340;2023-02-04T13:05:39;0.63;;;0.40;;
16577;SDS011;8401;52.528;13.340;2023-02-04T13:08:05;1.13;;;0.60;;
16577;SDS011;8401;52.528;13.340;2023-02-04T13:10:30;2.23;;;0.50;;
16577;SDS011;8401;52.528;13.340;2023-02-04T13:12:56;2.30;;;0.53;;
16577;SDS011;8401;52.528;13.340;2023-02-04T13:15:21;1.53;;;0.50;;
16577;SDS011;8401;52.528;13.340;2023-02-04T13:17:47;0.93;;;0.50;;
16577;SDS011;8401;52.528;13.340;2023-02-04T13:20:13;3.40;;;1.60;;
16577;SDS011;8401;52.528;13.340;2023-02-04T13:22:39;1.73;;;0.80;;
16577;SDS011;8401;52.528;13.340;2023-02-04T13:25:04;0.73;;;0.60;;
16577;SDS011;8401;52.528;13.340;2023-02-04T13:27:30;1.80;;;0.80;;
16577;SDS011;8401;52.528;13.340;2023-02-04T13:29:56;1.37;;;0.90;;
16577;SDS011;8401;52.528;13.340;2023-02-04T13:32:22;2.73;;;0.77;;
16577;SDS011;8401;52.528;13.340;2023-02-04T13:34:48;1.23;;;0.40;;
16577;SDS011;8401;52.528;13.340;2023-02-04T13:37:14;1.60;;;0.40;;
16577;SDS011;8401;52.528;13.340;2023-02-04T13:39:39;0.50;;;0.40;;
16577;SDS011;8401;52.528;13.340;2023-02-04T13:42:05;1.03;;;0.60;;
16577;SDS011;8401;52.528;13.340;2023-02-04T13:44:30;3.23;;;0.80;;
16577;SDS011;8401;52.528;13.340;2023-02-04T13:46:56;1.30;;;0.50;;
16577;SDS011;8401;52.528;13.340;2023-02-04T13:49:22;0.90;;;0.40;;
16577;SDS011;8401;52.528;13.340;2023-02-04T13:51:47;0.77;;;0.43;;
16577;SDS011;8401;52.528;13.340;2023-02-04T13:54:13;0.47;;;0.30;;
16577;SDS011;8401;52.528;13.340;2023-02-04T13:56:39;1.63;;;0.40;;
16577;SDS011;8401;52.528;13.340;2023-02-04T13:59:05;0.83;;;0.30;;
16577;SDS011;8401;52.528;13.340;2023-02-04T14:01:31;0.93;;;0.70;;
16577;SDS011;8401;52.528;13.340;2023-02-04T14:03:56;1.00;;;0.50;;
16577;SDS011;8401;52.528;13.340;2023-02-04T14:06:22;1.60;;;0.70;;
16577;SDS011;8401;52.528;13.340;2023-02-04T14:08:49;0.83;;;0.63;;
16577;SDS011;8401;52.528;13.340;2023-02-04T14:11:14;2.87;;;0.50;;
16577;SDS011;8401;52.528;13.340;2023-02-04T14:13:40;1.30;;;0.57;;
16577;SDS011;8401;52.528;13.340;2023-02-04T14:16:06;1.07;;;0.50;;
16577;SDS011;8401;52.528;13.340;2023-02-04T14:18:33;0.50;;;0.40;;
16577;SDS011;8401;52.528;13.340;2023-02-04T14:20:59;1.37;;;0.77;;
16577;SDS011;8401;52.528;13.340;2023-02-04T14:23:27;0.33;;;0.23;;
16577;SDS011;8401;52.528;13.340;2023-02-04T14:25:53;0.60;;;0.60;;
16577;SDS011;8401;52.528;13.340;2023-02-04T14:28:18;1.90;;;0.57;;
16577;SDS011;8401;52.528;13.340;2023-02-04T14:30:44;2.33;;;0.60;;
16577;SDS011;8401;52.528;13.340;2023-02-04T14:33:09;1.67;;;0.50;;
16577;SDS011;8401;52.528;13.340;2023-02-04T14:35:36;1.13;;;0.70;;
16577;SDS011;8401;52.528;13.340;2023-02-04T14:38:02;1.10;;;0.53;;
16577;SDS011;8401;52.528;13.340;2023-02-04T14:40:28;2.03;;;0.60;;
16577;SDS011;8401;52.528;13.340;2023-02-04T14:42:53;2.07;;;0.87;;
16577;SDS011;8401;52.528;13.340;2023-02-04T14:45:19;0.33;;;0.20;;
16577;SDS011;8401;52.528;13.340;2023-02-04T14:47:45;1.40;;;0.70;;
16577;SDS011;8401;52.528;13.340;2023-02-04T14:50:12;0.67;;;0.37;;
16577;SDS011;8401;52.528;13.340;2023-02-04T14:52:40;1.27;;;0.77;;
16577;SDS011;8401;52.528;13.340;2023-02-04T14:55:06;2.47;;;0.97;;
16577;SDS011;8401;52.528;13.340;2023-02-04T14:57:34;0.57;;;0.30;;
16577;SDS011;8401;52.528;13.340;2023-02-04T15:00:00;1.13;;;1.03;;
16577;SDS011;8401;52.528;13.340;2023-02-04T15:02:25;1.10;;;0.30;;